Time;durP1;ratioP1;P1;durP2;ratioP2;P2;SDS_P1;SDS_P2;PMS_P1;PMS_P2;Temp;Humidity;BMP_temperature;BMP_pressure;BME280_temperature;BME280_humidity;BME280_pressure;Samples;Min_cycle;Max_cycle;Signal;HPM_P1;HPM_P2
2022/01/21 00:01:14;;;;;;;10.45;3.20;;;2.50;90.20;;;;;;5980063;23;88713;-67
2022/01/21 00:03:42;;;;;;;12.43;2.90;;;2.50;90.30;;;;;;5956680;23;88616;-67
2022/01/21 00:06:09;;;;;;;12.02;3.20;;;2.60;90.40;;;;;;5981985;23;87964;-66
2022/01/21 00:08:39;;;;;;;13.90;2.92;;;2.60;90.20;;;;;;5982328;23;87542;-67
2022/01/21 00:11:09;;;;;;;9.65;3.08;;;2.70;90.00;;;;;;5981668;23;88628;-66
2022/01/21 00:13:37;;;;;;;10.48;2.90;;;2.70;90.10;;;;;;5981961;23;87968;-66
2022/01/21 00:16:16;;;;;;;9.60;2.28;;;2.70;90.40;;;;;;5981391;23;88612;-66
2022/01/21 00:18:55;;;;;;;8.70;2.55;;;2.70;89.90;;;;;;5982036;23;88159;-67
2022/01/21 00:32:26;;;;;;;8.25;2.42;;;2.60;89.80;;;;;;5980006;23;89706;-66
2022/01/21 00:34:54;;;;;;;9.57;2.08;;;2.70;89.90;;;;;;5979922;23;90978;-66
2022/01/21 00:37:21;;;;;;;13.02;2.10;;;2.70;89.80;;;;;;5981559;23;87945;-66
2022/01/21 00:39:53;;;;;;;8.32;2.17;;;2.80;89.20;;;;;;5980058;23;89374;-66
2022/01/21 00:44:49;;;;;;;8.32;1.85;;;3.00;89.30;;;;;;5981533;23;89075;-66
2022/01/21 00:47:16;;;;;;;14.38;2.47;;;3.10;89.00;;;;;;5981386;23;88072;-67
2022/01/21 00:49:43;;;;;;;10.95;1.77;;;3.10;89.20;;;;;;5979563;23;89435;-66
2022/01/21 00:52:10;;;;;;;8.25;2.53;;;3.20;88.80;;;;;;5981231;23;89989;-67
2022/01/21 00:54:37;;;;;;;11.52;1.80;;;3.20;88.40;;;;;;5979830;23;89409;-67
2022/01/21 00:57:04;;;;;;;8.45;1.83;;;3.30;88.10;;;;;;5980802;23;87938;-66
2022/01/21 00:59:31;;;;;;;10.38;2.03;;;3.40;88.30;;;;;;5981594;23;87742;-66
2022/01/21 01:01:59;;;;;;;12.75;2.88;;;3.50;87.40;;;;;;5979338;23;89777;-67
2022/01/21 01:04:27;;;;;;;13.77;2.53;;;3.50;86.20;;;;;;5979940;23;91008;-66
2022/01/21 01:06:54;;;;;;;12.13;2.08;;;3.50;86.50;;;;;;5979114;23;88737;-66
2022/01/21 01:09:21;;;;;;;12.07;2.20;;;3.60;87.50;;;;;;5979497;23;89448;-66
2022/01/21 01:12:32;;;;;;;13.63;2.88;;;3.60;87.40;;;;;;5981377;23;88622;-66
2022/01/21 01:20:13;;;;;;;15.45;3.00;;;3.60;87.90;;;;;;5981181;23;88913;-67
2022/01/21 01:28:25;;;;;;;14.35;2.22;;;3.50;87.90;;;;;;5979720;23;89405;-66
2022/01/21 01:30:52;;;;;;;12.40;2.20;;;3.40;87.60;;;;;;5955902;23;89342;-66
2022/01/21 01:33:23;;;;;;;11.57;1.80;;;3.40;88.30;;;;;;5980430;23;88725;-66
2022/01/21 01:35:51;;;;;;;12.48;2.05;;;3.30;88.80;;;;;;5981434;23;89299;-66
2022/01/21 01:40:50;;;;;;;9.10;1.52;;;3.30;88.70;;;;;;5981209;23;87973;-66
2022/01/21 01:51:18;;;;;;;7.35;1.73;;;3.40;90.00;;;;;;5979829;23;89399;-67
2022/01/21 01:53:48;;;;;;;4.90;1.67;;;3.40;90.10;;;;;;5955790;23;91164;-67
2022/01/21 01:56:17;;;;;;;9.27;1.30;;;3.40;90.20;;;;;;5978740;23;89685;-66
2022/01/21 01:58:45;;;;;;;9.40;1.58;;;3.40;90.40;;;;;;5978649;23;88820;-67
2022/01/21 02:01:12;;;;;;;5.85;1.42;;;3.40;90.60;;;;;;5981487;23;88153;-67
2022/01/21 02:03:39;;;;;;;4.82;1.33;;;3.40;90.60;;;;;;5980814;23;89947;-67
2022/01/21 02:06:06;;;;;;;7.57;1.65;;;3.40;90.60;;;;;;5980281;23;91252;-67
2022/01/21 02:08:34;;;;;;;5.57;1.20;;;3.50;90.60;;;;;;5980659;23;88004;-67
2022/01/21 02:11:02;;;;;;;5.43;1.00;;;3.40;90.60;;;;;;5980052;23;96046;-67
2022/01/21 02:13:39;;;;;;;9.85;1.55;;;3.40;90.60;;;;;;5980381;23;91413;-67
2022/01/21 02:16:19;;;;;;;4.28;1.25;;;3.40;90.50;;;;;;5980798;23;90073;-66
2022/01/21 02:21:43;;;;;;;8.13;1.38;;;3.40;90.80;;;;;;5982160;23;88047;-67
2022/01/21 02:24:21;;;;;;;6.53;1.35;;;3.40;90.60;;;;;;5979910;23;90943;-67
2022/01/21 02:26:50;;;;;;;9.00;1.38;;;3.50;90.60;;;;;;5982140;23;89179;-67
2022/01/21 02:29:31;;;;;;;11.20;1.85;;;3.50;90.60;;;;;;5980470;23;89201;-67
2022/01/21 02:32:00;;;;;;;8.90;1.50;;;3.60;90.60;;;;;;5982285;23;88123;-67
2022/01/21 02:34:28;;;;;;;8.23;1.58;;;3.60;90.20;;;;;;5981702;23;89862;-66
2022/01/21 02:36:55;;;;;;;12.13;1.45;;;3.60;90.30;;;;;;5982143;23;88386;-66
2022/01/21 02:39:22;;;;;;;8.25;1.67;;;3.70;90.50;;;;;;5982208;23;87900;-67
2022/01/21 02:41:49;;;;;;;5.90;1.40;;;3.70;90.40;;;;;;5981397;23;90739;-67
2022/01/21 02:44:18;;;;;;;9.98;1.60;;;3.60;90.00;;;;;;5980298;23;91753;-67
2022/01/21 02:46:54;;;;;;;7.78;1.52;;;3.70;90.00;;;;;;5980313;23;90616;-67
2022/01/21 02:49:21;;;;;;;5.15;1.10;;;3.60;90.00;;;;;;5979984;23;89318;-67
2022/01/21 02:51:51;;;;;;;7.00;1.55;;;3.60;90.20;;;;;;5957206;23;90483;-67
2022/01/21 02:54:18;;;;;;;15.80;2.10;;;3.50;89.90;;;;;;5981720;23;92801;-67
2022/01/21 02:56:45;;;;;;;14.38;2.05;;;3.50;90.00;;;;;;5980250;23;90797;-67
2022/01/21 02:59:12;;;;;;;13.88;1.77;;;3.40;90.00;;;;;;5979871;23;89007;-67
2022/01/21 03:01:41;;;;;;;9.27;1.67;;;3.40;90.10;;;;;;5980219;23;90644;-67
2022/01/21 03:04:14;;;;;;;9.40;1.33;;;3.40;90.30;;;;;;5956552;23;91410;-67
2022/01/21 03:06:41;;;;;;;8.35;1.75;;;3.40;90.40;;;;;;5980830;23;89573;-67
2022/01/21 03:09:10;;;;;;;7.35;1.58;;;3.40;90.40;;;;;;5979965;23;89178;-67
2022/01/21 03:11:37;;;;;;;7.30;1.55;;;3.40;90.30;;;;;;5980229;23;89318;-67
2022/01/21 03:14:04;;;;;;;6.70;1.10;;;3.40;90.20;;;;;;5981360;23;90363;-67
2022/01/21 03:16:31;;;;;;;5.70;1.45;;;3.50;89.70;;;;;;5981750;23;89201;-67
2022/01/21 03:18:58;;;;;;;5.35;1.15;;;3.50;89.60;;;;;;5980214;23;88165;-67
2022/01/21 03:21:25;;;;;;;6.47;0.90;;;3.50;90.00;;;;;;5979854;23;91014;-67
2022/01/21 03:23:54;;;;;;;9.15;1.33;;;3.50;90.00;;;;;;5980167;23;91093;-67
2022/01/21 03:26:25;;;;;;;4.10;0.70;;;3.50;89.70;;;;;;5979756;23;90923;-67
2022/01/21 03:28:55;;;;;;;5.00;1.23;;;3.40;88.60;;;;;;5980504;23;89412;-67
2022/01/21 03:31:23;;;;;;;5.03;0.90;;;3.40;88.80;;;;;;5980227;23;91543;-67
2022/01/21 03:33:52;;;;;;;2.95;1.17;;;3.30;89.10;;;;;;5980155;23;90810;-67
2022/01/21 03:36:19;;;;;;;6.10;1.00;;;3.30;89.40;;;;;;5979941;23;89405;-67
2022/01/21 03:38:47;;;;;;;10.02;1.67;;;3.30;89.70;;;;;;5979931;23;89821;-67
2022/01/21 03:41:14;;;;;;;4.80;0.88;;;3.30;90.00;;;;;;5956641;23;90809;-67
2022/01/21 03:43:41;;;;;;;7.82;1.17;;;3.30;90.10;;;;;;5980093;23;91204;-67
2022/01/21 03:46:08;;;;;;;6.65;1.52;;;3.40;89.70;;;;;;5980090;23;90908;-67
2022/01/21 03:48:35;;;;;;;2.25;0.95;;;3.40;90.20;;;;;;5979913;23;89050;-67
2022/01/21 03:51:03;;;;;;;4.32;0.80;;;3.40;90.10;;;;;;5980333;23;89526;-67
2022/01/21 03:53:31;;;;;;;7.05;1.17;;;3.50;89.60;;;;;;5979586;23;90597;-67
2022/01/21 03:55:58;;;;;;;3.88;1.13;;;3.50;89.80;;;;;;5957080;23;90883;-67
2022/01/21 03:58:26;;;;;;;8.77;1.23;;;3.50;90.10;;;;;;5979412;23;88573;-67
2022/01/21 04:00:55;;;;;;;4.80;1.23;;;3.60;90.30;;;;;;5979964;23;90265;-67
2022/01/21 04:03:25;;;;;;;10.25;1.55;;;3.60;90.30;;;;;;5979423;23;91744;-67
2022/01/21 04:05:53;;;;;;;6.05;1.40;;;3.60;90.20;;;;;;5979410;23;91589;-67
2022/01/21 04:08:21;;;;;;;7.78;1.45;;;3.60;90.20;;;;;;5979863;23;89291;-67
2022/01/21 04:10:56;;;;;;;10.13;1.30;;;3.50;90.30;;;;;;5979911;23;89228;-67
2022/01/21 04:13:26;;;;;;;11.27;2.10;;;3.50;90.30;;;;;;5979805;23;90972;-67
2022/01/21 04:15:58;;;;;;;3.63;1.30;;;3.50;90.30;;;;;;5980198;23;91290;-67
2022/01/21 04:18:26;;;;;;;5.15;0.95;;;3.40;90.20;;;;;;5979677;23;88453;-67
2022/01/21 04:20:56;;;;;;;6.65;1.48;;;3.40;90.30;;;;;;5957305;23;90678;-67
2022/01/21 04:23:25;;;;;;;6.70;1.50;;;3.30;90.30;;;;;;5979066;23;91238;-67
2022/01/21 04:25:53;;;;;;;7.15;1.38;;;3.30;90.30;;;;;;5956440;23;90553;-67
2022/01/21 04:28:20;;;;;;;5.05;1.20;;;3.30;90.30;;;;;;5979246;23;89078;-67
2022/01/21 04:30:48;;;;;;;7.13;1.33;;;3.20;90.30;;;;;;5979793;23;90810;-67
2022/01/21 04:33:18;;;;;;;5.82;1.33;;;3.30;90.40;;;;;;5979667;23;91007;-67
2022/01/21 04:35:55;;;;;;;9.63;1.73;;;3.30;90.40;;;;;;5980102;23;90429;-67
2022/01/21 04:38:23;;;;;;;6.13;1.40;;;3.30;90.40;;;;;;5979670;23;89076;-67
2022/01/21 04:40:59;;;;;;;4.53;1.20;;;3.30;90.30;;;;;;5979695;23;90215;-67
2022/01/21 04:48:57;;;;;;;8.52;1.42;;;3.40;90.20;;;;;;5981670;23;87999;-67
2022/01/21 04:51:29;;;;;;;8.32;1.17;;;3.40;90.10;;;;;;5955955;23;91033;-67
2022/01/21 04:53:58;;;;;;;4.18;1.15;;;3.30;90.10;;;;;;5979200;23;91521;-67
2022/01/21 04:56:28;;;;;;;4.50;1.10;;;3.30;90.10;;;;;;5979724;23;91806;-67
2022/01/21 04:58:56;;;;;;;5.85;0.90;;;3.20;90.10;;;;;;5980560;23;88010;-67
2022/01/21 05:01:24;;;;;;;7.63;1.10;;;3.20;90.10;;;;;;5979339;23;90733;-67
2022/01/21 05:03:52;;;;;;;8.73;1.38;;;3.10;90.10;;;;;;5979493;23;89638;-67
2022/01/21 05:06:19;;;;;;;7.65;1.17;;;3.10;90.20;;;;;;5979609;23;90801;-67
2022/01/21 05:08:52;;;;;;;6.30;0.98;;;3.10;90.30;;;;;;5979637;23;88385;-67
2022/01/21 05:11:21;;;;;;;7.47;1.03;;;3.10;90.30;;;;;;5981689;23;90722;-67
2022/01/21 05:13:56;;;;;;;6.60;1.88;;;3.10;90.40;;;;;;5979667;23;90857;-67
2022/01/21 05:18:57;;;;;;;6.13;1.42;;;3.20;90.50;;;;;;5978748;23;88829;-67
2022/01/21 05:21:51;;;;;;;4.03;1.05;;;3.20;90.50;;;;;;5978970;23;90540;-67
2022/01/21 05:24:25;;;;;;;9.15;1.38;;;3.30;90.50;;;;;;5979406;23;91227;-67
2022/01/21 05:26:53;;;;;;;7.55;1.33;;;3.40;90.40;;;;;;5979171;23;90395;-67
2022/01/21 05:29:26;;;;;;;6.10;1.00;;;3.40;90.30;;;;;;5979750;23;89227;-67
2022/01/21 05:31:59;;;;;;;4.40;1.10;;;3.50;90.30;;;;;;5979282;23;90312;-67
2022/01/21 05:34:33;;;;;;;4.22;1.02;;;3.50;90.50;;;;;;5957038;23;91198;-67
2022/01/21 05:37:19;;;;;;;8.35;1.38;;;3.50;90.40;;;;;;5981190;23;91081;-68
2022/01/21 05:40:07;;;;;;;3.75;1.42;;;3.60;90.20;;;;;;5960782;23;89154;-68
2022/01/21 05:42:43;;;;;;;9.00;1.10;;;3.60;90.20;;;;;;5980621;23;91020;-68
2022/01/21 05:48:38;;;;;;;8.40;1.52;;;3.60;90.00;;;;;;5967361;23;88681;-68
2022/01/21 05:51:24;;;;;;;6.45;1.55;;;3.60;90.00;;;;;;5982534;23;87949;-68
2022/01/21 05:54:14;;;;;;;9.70;1.40;;;3.50;90.00;;;;;;5977931;23;88059;-68
2022/01/21 05:57:02;;;;;;;8.88;1.73;;;3.50;90.00;;;;;;5981193;23;88257;-68
2022/01/21 05:59:32;;;;;;;8.20;1.50;;;3.40;89.90;;;;;;5981716;23;89689;-68
2022/01/21 06:02:04;;;;;;;3.33;1.17;;;3.30;90.00;;;;;;5981962;23;87972;-68
2022/01/21 06:04:32;;;;;;;8.95;1.38;;;3.30;90.10;;;;;;5980772;23;91046;-68
2022/01/21 06:07:00;;;;;;;10.18;1.30;;;3.20;90.20;;;;;;5980423;23;89679;-68
2022/01/21 06:09:28;;;;;;;13.60;1.58;;;3.20;90.30;;;;;;5980427;23;90647;-68
2022/01/21 06:11:55;;;;;;;13.15;1.58;;;3.20;90.30;;;;;;5979909;23;89138;-68
2022/01/21 06:14:24;;;;;;;8.90;1.27;;;3.20;90.20;;;;;;5980680;23;90283;-68
2022/01/21 06:16:52;;;;;;;5.05;1.50;;;3.20;90.50;;;;;;5980143;23;91084;-68
2022/01/21 06:19:19;;;;;;;7.50;1.45;;;3.20;90.80;;;;;;5981962;23;90240;-68
2022/01/21 06:21:46;;;;;;;8.52;1.58;;;3.30;90.60;;;;;;5980230;23;87990;-66
2022/01/21 06:24:13;;;;;;;8.43;1.30;;;3.30;90.70;;;;;;5980596;23;88178;-68
2022/01/21 06:26:40;;;;;;;7.45;1.30;;;3.30;90.50;;;;;;5981737;23;88692;-68
2022/01/21 06:29:07;;;;;;;4.82;0.90;;;3.30;90.40;;;;;;5982871;23;88486;-68
2022/01/21 06:31:34;;;;;;;7.28;1.75;;;3.20;90.30;;;;;;5981864;23;96964;-68
2022/01/21 06:34:01;;;;;;;7.38;1.60;;;3.20;90.20;;;;;;5982204;23;88006;-69
2022/01/21 06:36:28;;;;;;;7.28;1.65;;;3.20;90.30;;;;;;5981268;23;89176;-68
2022/01/21 06:38:55;;;;;;;7.85;1.52;;;3.20;90.40;;;;;;5981605;23;89160;-68
2022/01/21 06:41:22;;;;;;;10.73;1.60;;;3.10;90.30;;;;;;5982133;23;87942;-68
2022/01/21 06:43:50;;;;;;;11.73;1.73;;;3.20;90.60;;;;;;5981866;23;88037;-68
2022/01/21 06:46:17;;;;;;;9.85;1.60;;;3.20;90.60;;;;;;5982125;23;88329;-68
2022/01/21 06:48:44;;;;;;;8.13;1.25;;;3.20;90.50;;;;;;5981895;23;88256;-68
2022/01/21 06:51:11;;;;;;;8.38;1.45;;;3.20;90.50;;;;;;5982171;23;88116;-68
2022/01/21 06:53:38;;;;;;;10.15;1.45;;;3.20;90.60;;;;;;5980551;23;99244;-68
2022/01/21 06:56:05;;;;;;;5.47;1.13;;;3.20;90.60;;;;;;5980776;23;88326;-69
2022/01/21 06:58:32;;;;;;;8.70;1.40;;;3.20;90.90;;;;;;5982065;23;88024;-66
2022/01/21 07:00:59;;;;;;;8.40;1.67;;;3.20;90.80;;;;;;5979722;23;88780;-66
2022/01/21 07:03:26;;;;;;;11.30;1.75;;;3.30;90.90;;;;;;5980546;23;88205;-66
2022/01/21 07:05:53;;;;;;;7.03;1.77;;;3.30;90.80;;;;;;5981826;23;88436;-66
2022/01/21 07:08:20;;;;;;;4.38;1.30;;;3.30;90.60;;;;;;5980765;23;88322;-66
2022/01/21 07:10:47;;;;;;;5.93;1.33;;;3.30;90.50;;;;;;5979374;23;105068;-66
2022/01/21 07:13:14;;;;;;;5.05;1.38;;;3.30;90.50;;;;;;5982191;23;88151;-67
2022/01/21 07:15:41;;;;;;;9.25;1.38;;;3.30;90.50;;;;;;5956945;23;88628;-66
2022/01/21 07:18:08;;;;;;;5.43;1.27;;;3.40;90.60;;;;;;5982559;23;88360;-69
2022/01/21 07:20:36;;;;;;;7.65;1.30;;;3.40;90.60;;;;;;5982235;23;87999;-67
2022/01/21 07:23:03;;;;;;;6.95;1.42;;;3.50;90.60;;;;;;5981868;23;88264;-66
2022/01/21 07:25:30;;;;;;;7.13;1.83;;;3.60;90.80;;;;;;5981489;23;89479;-66
2022/01/21 07:27:57;;;;;;;8.13;1.88;;;3.60;90.30;;;;;;5981730;23;89097;-67
2022/01/21 07:30:24;;;;;;;8.55;1.23;;;3.60;90.50;;;;;;5981975;23;88060;-66
2022/01/21 07:32:51;;;;;;;9.50;1.05;;;3.70;90.20;;;;;;5979319;23;103661;-66
2022/01/21 07:35:18;;;;;;;4.18;1.02;;;3.70;90.10;;;;;;5956692;23;89867;-66
2022/01/21 07:38:05;;;;;;;9.55;1.42;;;3.70;90.10;;;;;;5981601;23;88266;-66
2022/01/21 07:40:32;;;;;;;13.15;1.70;;;3.70;90.00;;;;;;5980293;23;89256;-66
2022/01/21 07:42:59;;;;;;;8.27;1.33;;;3.60;90.00;;;;;;5982420;23;88157;-66
2022/01/21 07:45:26;;;;;;;5.30;1.40;;;3.60;90.00;;;;;;5981988;23;88620;-67
2022/01/21 07:47:53;;;;;;;18.55;2.47;;;3.60;89.90;;;;;;5980312;23;89328;-67
2022/01/21 07:50:20;;;;;;;7.43;1.10;;;3.60;90.00;;;;;;5980027;23;89593;-66
2022/01/21 07:52:47;;;;;;;7.97;1.48;;;3.60;89.90;;;;;;5981656;23;88599;-66
2022/01/21 07:55:14;;;;;;;8.23;1.38;;;3.60;89.90;;;;;;5980237;23;88748;-66
2022/01/21 07:57:44;;;;;;;9.82;1.88;;;3.70;90.00;;;;;;5980040;23;88357;-66
2022/01/21 08:00:13;;;;;;;9.73;1.73;;;3.70;90.00;;;;;;5981047;23;88033;-66
2022/01/21 08:02:40;;;;;;;6.70;2.08;;;3.70;89.90;;;;;;5981520;23;91512;-67
2022/01/21 08:05:07;;;;;;;10.65;1.83;;;3.80;89.70;;;;;;5981277;23;93583;-66
2022/01/21 08:07:34;;;;;;;12.40;1.98;;;3.80;89.50;;;;;;5982085;23;87466;-66
2022/01/21 08:10:02;;;;;;;12.27;1.95;;;3.80;89.50;;;;;;5979894;23;88052;-68
2022/01/21 08:12:28;;;;;;;7.13;1.35;;;3.70;89.20;;;;;;5979910;23;97955;-67
2022/01/21 08:14:55;;;;;;;10.95;1.92;;;3.70;89.30;;;;;;5979525;23;89489;-66
2022/01/21 08:17:23;;;;;;;8.00;1.35;;;3.70;89.40;;;;;;5981614;23;88968;-66
2022/01/21 08:19:50;;;;;;;11.73;2.33;;;3.70;89.20;;;;;;5981425;23;87996;-66
2022/01/21 08:22:17;;;;;;;9.32;1.90;;;3.70;89.20;;;;;;5979909;23;89366;-66
2022/01/21 08:24:43;;;;;;;9.45;1.55;;;3.70;89.40;;;;;;5981564;23;87999;-66
2022/01/21 08:27:11;;;;;;;9.13;1.23;;;3.70;89.60;;;;;;5981492;23;88408;-67
2022/01/21 08:29:37;;;;;;;11.85;2.05;;;3.70;89.50;;;;;;5981677;23;87918;-66
2022/01/21 08:32:05;;;;;;;8.98;1.60;;;3.70;89.20;;;;;;5981695;23;87779;-66
2022/01/21 08:34:34;;;;;;;11.63;1.95;;;3.70;89.30;;;;;;5979735;23;88683;-66
2022/01/21 08:37:03;;;;;;;10.35;1.65;;;3.70;89.30;;;;;;5981378;23;88769;-66
2022/01/21 08:39:30;;;;;;;9.18;2.05;;;3.70;89.10;;;;;;5980706;23;97371;-66
2022/01/21 08:41:57;;;;;;;10.77;1.92;;;3.80;89.20;;;;;;5981418;23;88090;-66
2022/01/21 08:44:24;;;;;;;12.57;1.70;;;3.80;89.30;;;;;;5979964;23;88602;-66
2022/01/21 08:46:51;;;;;;;9.23;1.50;;;3.90;89.40;;;;;;5981425;23;88289;-67
2022/01/21 08:49:36;;;;;;;9.98;1.50;;;3.90;89.40;;;;;;5980043;23;89256;-66
2022/01/21 08:52:03;;;;;;;9.65;1.75;;;4.00;89.20;;;;;;5981105;23;88313;-66
2022/01/21 08:54:30;;;;;;;15.95;2.65;;;4.10;89.00;;;;;;5981008;23;95767;-66
2022/01/21 08:56:58;;;;;;;10.27;2.28;;;4.30;88.90;;;;;;5981559;23;88553;-66
2022/01/21 08:59:26;;;;;;;10.77;1.60;;;4.40;88.60;;;;;;5980600;23;87966;-66
2022/01/21 09:01:54;;;;;;;12.07;1.52;;;4.60;88.70;;;;;;5981505;23;88130;-67
2022/01/21 09:04:22;;;;;;;9.77;1.80;;;4.80;88.00;;;;;;5981340;23;89227;-67
2022/01/21 09:06:49;;;;;;;9.70;2.08;;;5.00;87.30;;;;;;5979675;23;91851;-67
2022/01/21 09:09:16;;;;;;;6.88;2.08;;;5.10;86.40;;;;;;5981339;23;88479;-67
2022/01/21 09:11:43;;;;;;;9.98;1.80;;;5.30;86.50;;;;;;5981094;23;89449;-66
2022/01/21 09:14:10;;;;;;;6.85;1.55;;;5.40;85.30;;;;;;5982446;23;88557;-67
2022/01/21 09:16:38;;;;;;;9.55;1.73;;;5.50;85.20;;;;;;5982797;23;88342;-66
2022/01/21 09:19:06;;;;;;;8.98;1.85;;;5.60;85.30;;;;;;5982214;23;93881;-66
2022/01/21 09:21:37;;;;;;;9.07;1.63;;;5.70;84.90;;;;;;5981295;23;90986;-67
2022/01/21 09:24:05;;;;;;;8.68;1.60;;;5.80;85.00;;;;;;5982178;23;94048;-67
2022/01/21 09:26:32;;;;;;;13.98;2.65;;;5.80;84.20;;;;;;5982339;23;89165;-67
2022/01/21 09:29:03;;;;;;;11.10;2.28;;;5.90;84.20;;;;;;5980069;23;94593;-66
2022/01/21 09:31:31;;;;;;;12.20;1.65;;;6.00;84.00;;;;;;5983058;23;88252;-67
2022/01/21 09:34:18;;;;;;;8.23;1.98;;;6.00;83.70;;;;;;5982820;23;88626;-67
2022/01/21 09:36:45;;;;;;;11.25;1.70;;;6.00;83.50;;;;;;5982523;23;88362;-67
2022/01/21 09:39:13;;;;;;;13.73;2.80;;;6.10;83.90;;;;;;5982140;23;88712;-67
2022/01/21 09:41:43;;;;;;;15.25;2.10;;;6.10;83.20;;;;;;5982549;23;88106;-67
2022/01/21 09:44:16;;;;;;;13.63;2.45;;;6.10;83.20;;;;;;5982292;23;88029;-67
2022/01/21 09:46:46;;;;;;;9.32;1.65;;;6.20;83.20;;;;;;5983013;23;88405;-67
2022/01/21 09:51:50;;;;;;;6.00;1.92;;;6.30;83.10;;;;;;5968351;23;88784;-67
2022/01/21 09:54:17;;;;;;;12.07;2.30;;;6.30;82.70;;;;;;5957921;23;89508;-66
2022/01/21 09:56:46;;;;;;;10.38;2.45;;;6.40;82.80;;;;;;5960442;23;89112;-67
2022/01/21 09:59:18;;;;;;;10.40;1.90;;;6.40;82.60;;;;;;5960040;23;88278;-67
2022/01/21 10:01:50;;;;;;;7.95;1.77;;;6.40;82.50;;;;;;5961046;23;88547;-66
2022/01/21 10:04:19;;;;;;;17.15;3.15;;;6.50;82.80;;;;;;5959818;23;89736;-64
2022/01/21 10:06:47;;;;;;;8.23;2.40;;;6.50;82.40;;;;;;5957846;23;101247;-68
2022/01/21 10:09:15;;;;;;;15.55;2.65;;;6.50;82.10;;;;;;5958209;23;89161;-64
2022/01/21 10:11:48;;;;;;;10.95;2.28;;;6.60;82.10;;;;;;5960057;23;88238;-66
2022/01/21 10:14:42;;;;;;;16.98;2.97;;;6.60;82.10;;;;;;5956518;23;89700;-66
2022/01/21 10:17:12;;;;;;;15.82;2.83;;;6.70;81.70;;;;;;5956666;23;88921;-65
2022/01/21 10:19:39;;;;;;;11.60;1.90;;;6.70;81.80;;;;;;5960679;23;89578;-69
2022/01/21 10:22:13;;;;;;;9.85;2.08;;;6.80;82.10;;;;;;5959591;23;89178;-68
2022/01/21 10:24:52;;;;;;;18.73;2.97;;;6.90;82.00;;;;;;5960570;23;88850;-67
2022/01/21 10:27:24;;;;;;;10.07;2.40;;;7.00;82.50;;;;;;5959980;23;90820;-68
2022/01/21 10:29:52;;;;;;;8.43;1.77;;;7.10;81.90;;;;;;5960009;23;88785;-68
2022/01/21 10:32:39;;;;;;;7.88;2.40;;;7.30;81.60;;;;;;5959120;23;88953;-67
2022/01/21 10:35:30;;;;;;;11.15;2.03;;;7.40;81.40;;;;;;5958770;23;88690;-68
2022/01/21 10:38:23;;;;;;;11.20;2.40;;;7.50;81.40;;;;;;5958637;23;89704;-68
2022/01/21 10:40:51;;;;;;;11.45;2.20;;;7.50;80.70;;;;;;5960764;23;89192;-68
2022/01/21 10:43:21;;;;;;;13.88;2.20;;;7.50;81.20;;;;;;5960159;23;88862;-67
2022/01/21 10:45:53;;;;;;;8.57;2.17;;;7.60;81.20;;;;;;5959275;23;89245;-68
2022/01/21 10:48:20;;;;;;;12.02;2.53;;;7.60;81.30;;;;;;5960812;23;89191;-69
2022/01/21 10:51:14;;;;;;;16.58;2.30;;;7.70;80.70;;;;;;5960676;23;88575;-69
2022/01/21 10:53:43;;;;;;;12.88;2.50;;;7.80;81.10;;;;;;5958367;23;88978;-70
2022/01/21 10:56:15;;;;;;;12.90;2.35;;;7.80;80.90;;;;;;5959743;23;89836;-70
2022/01/21 10:58:45;;;;;;;12.25;2.40;;;7.70;80.90;;;;;;5959057;23;88237;-71
2022/01/21 11:01:17;;;;;;;10.50;2.50;;;7.70;80.80;;;;;;5958959;23;89020;-67
2022/01/21 11:04:04;;;;;;;8.05;2.35;;;7.70;81.10;;;;;;5960735;23;88386;-69
2022/01/21 11:06:48;;;;;;;10.77;1.80;;;7.70;81.00;;;;;;5956560;23;89860;-67
2022/01/21 11:09:19;;;;;;;9.25;2.22;;;7.70;81.60;;;;;;5956881;23;88406;-68
2022/01/21 11:11:49;;;;;;;9.43;2.03;;;7.70;81.70;;;;;;5957254;23;89509;-68
2022/01/21 11:14:20;;;;;;;9.98;1.90;;;7.70;81.90;;;;;;5958892;23;88995;-67
2022/01/21 11:16:48;;;;;;;13.05;2.22;;;7.80;82.00;;;;;;5960364;23;88791;-69
2022/01/21 11:19:36;;;;;;;10.07;1.90;;;7.90;81.90;;;;;;5959660;23;88096;-66
2022/01/21 11:22:04;;;;;;;9.32;2.20;;;7.90;81.60;;;;;;5957863;23;101058;-67
2022/01/21 11:24:32;;;;;;;10.27;1.98;;;8.00;81.40;;;;;;5959635;23;88988;-70
2022/01/21 11:27:12;;;;;;;7.13;1.83;;;8.00;81.30;;;;;;5979415;23;89745;-66
2022/01/21 11:29:40;;;;;;;14.98;2.25;;;8.10;81.20;;;;;;5982452;23;88428;-66
2022/01/21 11:32:08;;;;;;;11.85;1.90;;;8.10;81.10;;;;;;5981943;23;87942;-66
2022/01/21 11:34:36;;;;;;;9.85;1.88;;;8.20;81.00;;;;;;5979337;23;90016;-66
2022/01/21 11:37:05;;;;;;;7.55;1.77;;;8.30;81.30;;;;;;5981136;23;89243;-66
2022/01/21 11:39:32;;;;;;;11.25;2.10;;;8.30;80.90;;;;;;5981181;23;90319;-66
2022/01/21 11:42:02;;;;;;;12.15;2.45;;;8.40;81.20;;;;;;5981954;23;87902;-66
2022/01/21 11:44:30;;;;;;;10.40;2.17;;;8.40;81.20;;;;;;5981509;23;87996;-66
2022/01/21 11:49:30;;;;;;;9.77;3.00;;;8.50;80.90;;;;;;5981422;23;88324;-66
2022/01/21 11:52:15;;;;;;;8.20;1.92;;;8.50;81.20;;;;;;5981886;23;88119;-66
2022/01/21 11:54:43;;;;;;;15.73;2.40;;;8.50;81.40;;;;;;5982225;23;87963;-66
2022/01/21 11:57:12;;;;;;;9.48;2.33;;;8.40;81.70;;;;;;5981489;23;88749;-66
2022/01/21 12:02:14;;;;;;;12.00;2.28;;;8.60;81.90;;;;;;5981089;23;89017;-66
2022/01/21 12:04:52;;;;;;;12.32;2.63;;;8.60;81.80;;;;;;5979276;23;89441;-66
2022/01/21 12:07:57;;;;;;;14.65;2.63;;;8.70;82.00;;;;;;5981402;23;88987;-66
2022/01/21 12:10:21;;;;;;;16.95;2.38;;;8.70;81.60;;;;;;5981224;23;88294;-66
2022/01/21 12:12:54;;;;;;;12.38;2.90;;;8.70;81.80;;;;;;5964872;23;88696;-66
2022/01/21 12:15:33;;;;;;;13.30;3.00;;;8.70;82.00;;;;;;5950471;23;89324;-66
2022/01/21 12:21:03;;;;;;;13.10;2.50;;;8.80;82.20;;;;;;5949384;23;88417;-66
2022/01/21 12:23:44;;;;;;;16.63;2.53;;;8.90;82.20;;;;;;5928242;23;88036;-66
2022/01/21 12:26:15;;;;;;;16.42;2.45;;;8.90;82.50;;;;;;5953214;23;88459;-66
2022/01/21 12:28:45;;;;;;;11.45;2.30;;;8.90;82.30;;;;;;5952714;23;88731;-66
2022/01/21 12:31:14;;;;;;;9.90;2.30;;;8.90;82.40;;;;;;5953037;23;89246;-66
2022/01/21 12:36:34;;;;;;;10.45;2.25;;;9.00;82.90;;;;;;5927540;23;89570;-66
2022/01/21 12:39:24;;;;;;;11.57;2.40;;;9.10;83.60;;;;;;5953010;23;88678;-66
2022/01/21 12:41:52;;;;;;;13.35;2.25;;;9.10;83.40;;;;;;5952953;23;88508;-66
2022/01/21 12:44:30;;;;;;;14.27;2.40;;;9.10;82.90;;;;;;5952421;23;87923;-65
2022/01/21 12:46:58;;;;;;;7.25;1.85;;;9.10;83.00;;;;;;5953514;23;88142;-66
2022/01/21 12:49:32;;;;;;;12.00;1.90;;;9.00;83.50;;;;;;5952404;23;88471;-66
2022/01/21 12:52:32;;;;;;;10.00;1.85;;;9.00;83.60;;;;;;5953007;23;88086;-66
2022/01/21 12:57:45;;;;;;;10.98;2.38;;;9.00;83.70;;;;;;5952402;23;88054;-66
2022/01/21 13:00:14;;;;;;;6.22;1.50;;;9.10;83.70;;;;;;5927628;23;89548;-66
2022/01/21 13:02:49;;;;;;;6.82;2.05;;;9.10;83.40;;;;;;5904290;23;91225;-66
2022/01/21 13:05:22;;;;;;;5.18;1.35;;;9.10;83.90;;;;;;5953113;23;87967;-66
2022/01/21 13:08:15;;;;;;;10.55;1.90;;;9.10;83.40;;;;;;5927864;23;91204;-66
2022/01/21 13:10:42;;;;;;;8.77;1.80;;;9.10;83.40;;;;;;5952424;23;93053;-66
2022/01/21 13:15:48;;;;;;;5.10;1.40;;;9.00;83.70;;;;;;5952654;23;87899;-66
2022/01/21 13:18:24;;;;;;;7.57;1.63;;;9.10;83.70;;;;;;5928190;23;88306;-66
2022/01/21 13:20:57;;;;;;;10.23;1.90;;;9.10;83.40;;;;;;5952788;23;89375;-66
2022/01/21 13:23:40;;;;;;;10.20;1.77;;;9.10;83.20;;;;;;5952849;23;89048;-65
2022/01/21 13:26:31;;;;;;;7.40;1.83;;;9.00;83.90;;;;;;5952921;23;87861;-66
2022/01/21 13:29:00;;;;;;;7.55;1.88;;;9.00;83.80;;;;;;5952878;23;88257;-66
2022/01/21 13:31:29;;;;;;;10.18;1.83;;;8.90;83.70;;;;;;5952329;23;88476;-65
2022/01/21 13:34:12;;;;;;;7.93;1.42;;;8.90;84.00;;;;;;5952721;23;88625;-66
2022/01/21 13:36:50;;;;;;;8.32;1.40;;;8.90;84.00;;;;;;5951997;23;88456;-68
2022/01/21 13:39:23;;;;;;;11.15;1.67;;;8.80;83.80;;;;;;5953106;23;88105;-68
2022/01/21 13:42:03;;;;;;;10.27;1.40;;;8.80;84.30;;;;;;5952296;23;88018;-68
2022/01/21 13:44:40;;;;;;;7.78;1.67;;;8.80;85.00;;;;;;5952378;23;88213;-68
2022/01/21 13:47:44;;;;;;;9.85;2.45;;;8.80;84.00;;;;;;5952507;23;89131;-68
2022/01/21 13:50:22;;;;;;;7.70;1.60;;;8.80;84.40;;;;;;5952904;23;88027;-68
2022/01/21 13:52:58;;;;;;;13.63;1.50;;;8.70;83.60;;;;;;5952366;23;87969;-68
2022/01/21 13:55:56;;;;;;;7.18;1.25;;;8.80;83.80;;;;;;5952872;23;88416;-68
2022/01/21 13:58:32;;;;;;;10.43;1.92;;;8.90;84.20;;;;;;5953866;23;88022;-68
2022/01/21 14:01:01;;;;;;;9.48;1.70;;;8.90;83.90;;;;;;5953419;23;88118;-68
2022/01/21 14:03:39;;;;;;;9.13;1.70;;;8.80;83.30;;;;;;5954047;23;89328;-68
2022/01/21 14:06:14;;;;;;;9.55;1.60;;;8.80;83.80;;;;;;5954352;23;88344;-68
2022/01/21 14:08:43;;;;;;;8.88;1.95;;;8.80;84.00;;;;;;5905407;23;88030;-65
2022/01/21 14:11:26;;;;;;;9.82;1.65;;;8.70;84.80;;;;;;5929201;23;88100;-65
2022/01/21 14:14:01;;;;;;;9.00;1.80;;;8.60;85.20;;;;;;5953020;23;88753;-65
2022/01/21 14:16:30;;;;;;;10.40;1.83;;;8.50;85.60;;;;;;5953741;23;89211;-65
2022/01/21 14:18:59;;;;;;;12.48;1.90;;;8.40;88.10;;;;;;5953632;23;89071;-65
2022/01/21 14:21:28;;;;;;;11.90;1.90;;;8.30;88.80;;;;;;5928287;23;89428;-65